Time;durP1;ratioP1;P1;durP2;ratioP2;P2;SDS_P1;SDS_P2;PMS_P1;PMS_P2;Temp;Humidity;BMP_temperature;BMP_pressure;BME280_temperature;BME280_humidity;BME280_pressure;Samples;Min_cycle;Max_cycle;Signal;HPM_P1;HPM_P2
2022/02/05 00:01:54;;;;;;;5.93;2.50;;;;;;;;;;5002920;28;20094;-66
2022/02/05 00:04:19;;;;;;;11.70;3.30;;;;;;;;;;5003846;28;20581;-67
2022/02/05 00:06:49;;;;;;;7.35;2.80;;;;;;;;;;4992263;28;20181;-68
2022/02/05 00:43:40;;;;;;;7.65;3.63;;;;;;;;;;4996173;28;20391;-67
2022/02/05 00:46:07;;;;;;;6.95;3.08;;;;;;;;;;4998342;28;20301;-67
2022/02/05 00:48:32;;;;;;;6.75;2.92;;;;;;;;;;4994277;28;20102;-68
2022/02/05 00:51:10;;;;;;;11.77;3.43;;;;;;;;;;4989697;28;20454;-68
2022/02/05 00:53:37;;;;;;;6.45;2.50;;;;;;;;;;5002958;28;20420;-68
2022/02/05 00:56:19;;;;;;;8.02;3.17;;;;;;;;;;4989732;28;20586;-68
2022/02/05 00:58:44;;;;;;;6.45;3.25;;;;;;;;;;5000742;28;20110;-67
2022/02/05 01:01:10;;;;;;;9.10;3.30;;;;;;;;;;4996651;28;20098;-66
2022/02/05 01:03:36;;;;;;;3.50;2.67;;;;;;;;;;4994426;28;20098;-68
2022/02/05 01:06:01;;;;;;;9.05;3.40;;;;;;;;;;4989542;28;20479;-68
2022/02/05 01:08:26;;;;;;;9.77;4.15;;;;;;;;;;4998132;28;20099;-67
2022/02/05 01:10:52;;;;;;;7.80;3.40;;;;;;;;;;4996895;28;20562;-68
2022/02/05 01:13:17;;;;;;;10.02;3.95;;;;;;;;;;4994649;28;20070;-68
2022/02/05 01:15:55;;;;;;;6.60;3.58;;;;;;;;;;4993439;28;20126;-67
2022/02/05 01:18:22;;;;;;;5.32;3.22;;;;;;;;;;4996525;28;20078;-68
2022/02/05 01:26:26;;;;;;;7.28;3.47;;;;;;;;;;4989065;28;20081;-69
2022/02/05 01:28:57;;;;;;;9.15;4.95;;;;;;;;;;5003328;28;20098;-67
2022/02/05 01:31:27;;;;;;;4.22;2.92;;;;;;;;;;4995034;28;20095;-68
2022/02/05 01:34:07;;;;;;;;;;;;;;;;;;4996624;28;20571;-67
2022/02/05 02:11:36;;;;;;;7.95;3.45;;;;;;;;;;4997161;28;20105;-68
2022/02/05 02:19:25;;;;;;;8.00;3.30;;;;;;;;;;4991878;28;20103;-67
2022/02/05 02:23:01;;;;;;;6.95;3.40;;;;;;;;;;5001023;28;20487;-69
2022/02/05 02:25:16;;;;;;;6.28;3.53;;;;;;;;;;4991260;28;20099;-68
2022/02/05 02:30:06;;;;;;;4.88;2.42;;;;;;;;;;4992821;28;20374;-69
2022/02/05 02:32:33;;;;;;;7.85;2.97;;;;;;;;;;5009970;28;20129;-69
2022/02/05 02:35:05;;;;;;;5.50;2.75;;;;;;;;;;4988570;28;20094;-69
2022/02/05 02:37:37;;;;;;;8.75;2.97;;;;;;;;;;5008004;28;20082;-66
2022/02/05 02:40:42;;;;;;;7.32;3.28;;;;;;;;;;4995043;28;20094;-67
2022/02/05 02:43:02;;;;;;;6.30;2.92;;;;;;;;;;4989896;28;20137;-67
2022/02/05 02:45:27;;;;;;;7.60;2.90;;;;;;;;;;4993520;28;20075;-66
2022/02/05 02:47:52;;;;;;;7.22;2.97;;;;;;;;;;5003781;28;20458;-68
2022/02/05 02:58:16;;;;;;;6.97;3.05;;;;;;;;;;5010921;28;20105;-68
2022/02/05 03:00:41;;;;;;;7.97;2.97;;;;;;;;;;4995254;28;20148;-68
2022/02/05 03:03:06;;;;;;;6.67;2.50;;;;;;;;;;5003651;28;20099;-69
2022/02/05 03:05:32;;;;;;;7.57;2.83;;;;;;;;;;4996671;28;20078;-68
2022/02/05 03:07:57;;;;;;;6.10;2.87;;;;;;;;;;5000509;28;20403;-67
2022/02/05 03:10:22;;;;;;;7.23;2.10;;;;;;;;;;4998509;28;20322;-67
2022/02/05 03:12:47;;;;;;;12.67;3.43;;;;;;;;;;4998308;28;20417;-69
2022/02/05 03:15:14;;;;;;;9.80;3.17;;;;;;;;;;5000196;28;20727;-69
2022/02/05 03:17:52;;;;;;;6.18;2.92;;;;;;;;;;4996682;28;20165;-67
2022/02/05 03:20:18;;;;;;;5.18;2.72;;;;;;;;;;5003295;28;20209;-68
2022/02/05 03:22:43;;;;;;;5.30;2.97;;;;;;;;;;4994885;28;20161;-67
2022/02/05 03:25:08;;;;;;;8.77;3.50;;;;;;;;;;5005306;28;20517;-66
2022/02/05 03:27:33;;;;;;;7.50;3.22;;;;;;;;;;5004849;28;20585;-68
2022/02/05 03:29:59;;;;;;;6.13;2.80;;;;;;;;;;4991343;28;20395;-68
2022/02/05 03:32:25;;;;;;;9.98;3.10;;;;;;;;;;5004637;28;20101;-68
2022/02/05 03:34:50;;;;;;;8.25;2.78;;;;;;;;;;5004913;28;20102;-68
2022/02/05 03:37:18;;;;;;;4.83;2.20;;;;;;;;;;4997346;28;20071;-68
2022/02/05 03:39:43;;;;;;;10.68;2.72;;;;;;;;;;5003038;28;20108;-67
2022/02/05 03:42:08;;;;;;;5.90;2.77;;;;;;;;;;5004159;28;20086;-68
2022/02/05 03:44:33;;;;;;;6.50;2.93;;;;;;;;;;5010714;28;20132;-68
2022/02/05 03:46:59;;;;;;;7.37;2.80;;;;;;;;;;5017705;28;20423;-68
2022/02/05 03:49:24;;;;;;;8.02;2.90;;;;;;;;;;4995658;28;20120;-66
2022/02/05 03:51:49;;;;;;;9.23;3.30;;;;;;;;;;4996451;28;20098;-68
2022/02/05 03:54:15;;;;;;;6.65;2.85;;;;;;;;;;5004918;28;20512;-68
2022/02/05 03:56:40;;;;;;;5.55;2.22;;;;;;;;;;5004208;28;20097;-66
2022/02/05 03:59:06;;;;;;;8.30;2.87;;;;;;;;;;5004055;28;20106;-67
2022/02/05 04:01:31;;;;;;;9.07;3.28;;;;;;;;;;4997663;28;20360;-66
2022/02/05 04:03:56;;;;;;;10.47;3.03;;;;;;;;;;4996808;28;20095;-67
2022/02/05 04:06:21;;;;;;;7.63;2.88;;;;;;;;;;5003284;28;20090;-68
2022/02/05 04:08:49;;;;;;;10.00;2.70;;;;;;;;;;5003881;28;20404;-68
2022/02/05 04:16:42;;;;;;;8.30;2.53;;;;;;;;;;5002028;28;20192;-67
2022/02/05 04:19:07;;;;;;;10.05;3.00;;;;;;;;;;5003262;28;20110;-67
2022/02/05 04:21:32;;;;;;;5.70;2.47;;;;;;;;;;4998419;28;20090;-66
2022/02/05 04:24:00;;;;;;;8.90;3.45;;;;;;;;;;5003770;28;20094;-68
2022/02/05 04:26:25;;;;;;;5.85;3.22;;;;;;;;;;5001115;28;20088;-68
2022/02/05 04:28:51;;;;;;;9.00;3.33;;;;;;;;;;4997162;28;20074;-67
2022/02/05 04:31:16;;;;;;;12.50;3.40;;;;;;;;;;5003546;28;20094;-67
2022/02/05 04:33:41;;;;;;;10.37;3.83;;;;;;;;;;4997898;28;20523;-67
2022/02/05 04:36:07;;;;;;;8.55;2.95;;;;;;;;;;5003491;28;20106;-66
2022/02/05 04:38:33;;;;;;;8.85;3.47;;;;;;;;;;4997505;28;20180;-67
2022/02/05 04:41:08;;;;;;;7.30;3.25;;;;;;;;;;4997304;28;20181;-67
2022/02/05 04:46:29;;;;;;;9.75;3.45;;;;;;;;;;5003994;28;20070;-67
2022/02/05 04:52:00;;;;;;;11.68;2.83;;;;;;;;;;4990935;28;20630;-67
2022/02/05 04:54:40;;;;;;;7.13;2.92;;;;;;;;;;4985159;28;20409;-67
2022/02/05 04:57:32;;;;;;;10.60;2.83;;;;;;;;;;4982112;28;20107;-67
2022/02/05 05:15:20;;;;;;;7.22;3.13;;;;;;;;;;4982003;28;20086;-66
2022/02/05 05:19:16;;;;;;;9.25;3.42;;;;;;;;;;4980450;28;20185;-67
2022/02/05 05:21:41;;;;;;;10.02;3.00;;;;;;;;;;4973312;28;20728;-67
2022/02/05 05:24:06;;;;;;;6.37;2.47;;;;;;;;;;5002647;28;20185;-67
2022/02/05 05:26:32;;;;;;;10.20;3.33;;;;;;;;;;4999339;28;20160;-66
2022/02/05 05:28:57;;;;;;;6.75;2.88;;;;;;;;;;4999894;28;20079;-68
2022/02/05 05:31:22;;;;;;;5.50;3.03;;;;;;;;;;5003547;28;20648;-66
2022/02/05 05:33:47;;;;;;;8.90;3.20;;;;;;;;;;5001093;28;20094;-67
2022/02/05 05:36:12;;;;;;;5.70;2.67;;;;;;;;;;4998886;28;20349;-66
2022/02/05 05:38:38;;;;;;;9.17;2.80;;;;;;;;;;4997150;28;20532;-67
2022/02/05 05:41:03;;;;;;;6.93;3.13;;;;;;;;;;5001158;28;20098;-67
2022/02/05 05:43:46;;;;;;;5.73;2.80;;;;;;;;;;4988741;28;20184;-66
2022/02/05 05:48:58;;;;;;;6.72;2.70;;;;;;;;;;5001851;28;20455;-67
2022/02/05 05:51:24;;;;;;;7.03;3.13;;;;;;;;;;4999484;28;20098;-67
2022/02/05 05:53:49;;;;;;;7.13;3.23;;;;;;;;;;5001816;28;20135;-66
2022/02/05 05:56:15;;;;;;;7.50;3.37;;;;;;;;;;5007210;28;20873;-67
2022/02/05 05:58:40;;;;;;;8.02;3.83;;;;;;;;;;4996615;28;20075;-66
2022/02/05 06:01:05;;;;;;;6.30;2.80;;;;;;;;;;5001053;28;20631;-67
2022/02/05 06:03:34;;;;;;;8.77;2.97;;;;;;;;;;4994367;28;20099;-67
2022/02/05 06:05:59;;;;;;;13.38;3.95;;;;;;;;;;4997094;28;20153;-67
2022/02/05 06:08:24;;;;;;;9.17;4.37;;;;;;;;;;5001407;28;20600;-66
2022/02/05 06:10:49;;;;;;;8.07;3.28;;;;;;;;;;4994373;28;20099;-67
2022/02/05 06:13:15;;;;;;;6.83;3.43;;;;;;;;;;5000617;28;20661;-67
2022/02/05 06:15:41;;;;;;;8.23;3.20;;;;;;;;;;5000647;28;20568;-66
2022/02/05 06:18:08;;;;;;;4.75;3.00;;;;;;;;;;5001669;28;20086;-66
2022/02/05 06:20:33;;;;;;;6.25;2.97;;;;;;;;;;4989992;28;20142;-67
2022/02/05 06:22:59;;;;;;;21.52;9.38;;;;;;;;;;4997743;28;20187;-65
2022/02/05 06:25:24;;;;;;;9.87;4.23;;;;;;;;;;4999930;28;20102;-67
2022/02/05 06:27:50;;;;;;;8.57;3.60;;;;;;;;;;4999537;28;20511;-67
2022/02/05 06:30:15;;;;;;;5.63;2.83;;;;;;;;;;5000655;28;20598;-68
2022/02/05 06:32:41;;;;;;;7.13;3.30;;;;;;;;;;5003930;28;20426;-66
2022/02/05 06:35:07;;;;;;;9.80;3.15;;;;;;;;;;4995173;28;20127;-68
2022/02/05 06:37:32;;;;;;;8.55;3.35;;;;;;;;;;4995737;28;20102;-66
2022/02/05 06:39:57;;;;;;;9.27;3.40;;;;;;;;;;5000239;28;20102;-67
2022/02/05 06:42:23;;;;;;;7.33;3.00;;;;;;;;;;5000984;28;20129;-65
2022/02/05 06:44:48;;;;;;;7.90;3.72;;;;;;;;;;4999451;28;20098;-67
2022/02/05 06:47:13;;;;;;;7.83;3.20;;;;;;;;;;5001184;28;20658;-65
2022/02/05 06:49:38;;;;;;;7.30;3.47;;;;;;;;;;5001691;28;20074;-66
2022/02/05 06:52:04;;;;;;;7.03;2.90;;;;;;;;;;4993594;28;20118;-67
2022/02/05 06:54:29;;;;;;;7.30;3.30;;;;;;;;;;5006618;28;20109;-65
2022/02/05 06:56:55;;;;;;;9.50;4.00;;;;;;;;;;5000869;28;20106;-66
2022/02/05 06:59:20;;;;;;;8.47;3.37;;;;;;;;;;4998048;28;20811;-66
2022/02/05 07:01:45;;;;;;;8.77;3.88;;;;;;;;;;5003827;28;20188;-66
2022/02/05 07:04:10;;;;;;;7.40;3.27;;;;;;;;;;5001240;28;20098;-67
2022/02/05 07:06:36;;;;;;;9.50;3.60;;;;;;;;;;4995307;28;20314;-67
2022/02/05 07:09:03;;;;;;;4.80;2.70;;;;;;;;;;4994940;28;20156;-67
2022/02/05 07:11:29;;;;;;;9.25;3.10;;;;;;;;;;4997403;28;20135;-66
2022/02/05 07:13:55;;;;;;;9.03;3.20;;;;;;;;;;4995602;28;20078;-66
2022/02/05 07:16:29;;;;;;;6.85;3.05;;;;;;;;;;4998830;28;20579;-67
2022/02/05 07:19:12;;;;;;;5.97;3.10;;;;;;;;;;4995051;28;20583;-67
2022/02/05 07:21:43;;;;;;;7.15;3.05;;;;;;;;;;4997100;28;20506;-66
2022/02/05 07:24:25;;;;;;;10.52;4.30;;;;;;;;;;4993947;28;20098;-66
2022/02/05 07:29:34;;;;;;;9.80;3.65;;;;;;;;;;4995615;28;20089;-67
2022/02/05 07:32:00;;;;;;;7.87;3.70;;;;;;;;;;4990794;28;20098;-67
2022/02/05 07:34:29;;;;;;;8.82;3.60;;;;;;;;;;4999042;28;20516;-65
2022/02/05 07:37:03;;;;;;;7.60;3.47;;;;;;;;;;4991136;28;20110;-65
2022/02/05 07:39:33;;;;;;;7.97;3.50;;;;;;;;;;4996838;28;20102;-65
2022/02/05 07:42:00;;;;;;;9.52;3.15;;;;;;;;;;4998548;28;20114;-66
2022/02/05 07:44:26;;;;;;;10.32;4.13;;;;;;;;;;4998800;28;20639;-66
2022/02/05 07:46:52;;;;;;;7.77;3.53;;;;;;;;;;4990978;28;20141;-64
2022/02/05 07:49:18;;;;;;;13.57;3.92;;;;;;;;;;4986670;28;20174;-65
2022/02/05 07:51:44;;;;;;;7.43;3.10;;;;;;;;;;4997718;28;20607;-64
2022/02/05 07:54:11;;;;;;;9.57;3.38;;;;;;;;;;5000216;28;20404;-64
2022/02/05 07:56:42;;;;;;;8.55;3.67;;;;;;;;;;4997938;28;20646;-65
2022/02/05 07:59:08;;;;;;;4.20;2.75;;;;;;;;;;4993741;28;20099;-66
2022/02/05 08:01:33;;;;;;;7.85;3.22;;;;;;;;;;4997176;28;20423;-66
2022/02/05 08:03:59;;;;;;;6.57;3.90;;;;;;;;;;4994710;28;20101;-64
2022/02/05 08:06:24;;;;;;;7.65;2.80;;;;;;;;;;4995711;28;20325;-64
2022/02/05 08:08:53;;;;;;;8.33;2.97;;;;;;;;;;4995388;28;20496;-64
2022/02/05 08:11:22;;;;;;;10.20;3.00;;;;;;;;;;4995757;28;20117;-65
2022/02/05 08:13:50;;;;;;;8.07;3.42;;;;;;;;;;4998840;28;20606;-64
2022/02/05 08:16:47;;;;;;;5.68;2.67;;;;;;;;;;4993658;28;20560;-65
2022/02/05 08:19:12;;;;;;;10.25;3.58;;;;;;;;;;4996638;28;20098;-65
2022/02/05 08:21:37;;;;;;;7.00;2.97;;;;;;;;;;4995936;28;20625;-64
2022/02/05 08:24:02;;;;;;;8.73;3.30;;;;;;;;;;4996960;28;20124;-64
2022/02/05 08:26:29;;;;;;;6.28;3.33;;;;;;;;;;4997597;28;20074;-65
2022/02/05 08:28:55;;;;;;;7.25;3.22;;;;;;;;;;4995492;28;20155;-65
2022/02/05 08:31:21;;;;;;;9.10;3.47;;;;;;;;;;4992118;28;20341;-64
2022/02/05 08:33:46;;;;;;;8.30;3.22;;;;;;;;;;4995823;28;20074;-64
2022/02/05 08:36:11;;;;;;;6.70;3.00;;;;;;;;;;4997406;28;20652;-63
2022/02/05 08:38:36;;;;;;;7.32;2.67;;;;;;;;;;4994236;28;20074;-65
2022/02/05 08:41:02;;;;;;;9.57;3.53;;;;;;;;;;4997022;28;20614;-65
2022/02/05 08:43:27;;;;;;;14.53;4.60;;;;;;;;;;4995727;28;20471;-64
2022/02/05 08:45:52;;;;;;;6.80;3.07;;;;;;;;;;4996655;28;20348;-65
2022/02/05 08:48:17;;;;;;;7.23;3.57;;;;;;;;;;4996697;28;20382;-65
2022/02/05 08:50:43;;;;;;;7.63;3.27;;;;;;;;;;4995450;28;20151;-64
2022/02/05 08:53:09;;;;;;;7.93;2.90;;;;;;;;;;4997228;28;20224;-64
2022/02/05 08:55:34;;;;;;;8.60;3.28;;;;;;;;;;4996624;28;20109;-64
2022/02/05 08:58:01;;;;;;;7.77;3.50;;;;;;;;;;4997100;28;20082;-64
2022/02/05 09:00:27;;;;;;;5.13;2.90;;;;;;;;;;4995493;28;20107;-66
2022/02/05 09:03:00;;;;;;;5.43;3.08;;;;;;;;;;4991097;28;20101;-65
2022/02/05 09:05:47;;;;;;;6.90;3.17;;;;;;;;;;4993164;28;20652;-65
2022/02/05 09:11:00;;;;;;;8.77;3.60;;;;;;;;;;4997834;28;20098;-65
2022/02/05 09:16:03;;;;;;;11.02;3.78;;;;;;;;;;4996661;28;20458;-66
2022/02/05 09:18:28;;;;;;;11.95;3.20;;;;;;;;;;4996221;28;20140;-64
2022/02/05 09:20:54;;;;;;;5.77;2.80;;;;;;;;;;4998910;28;20356;-65
2022/02/05 09:23:19;;;;;;;8.75;3.10;;;;;;;;;;4989793;28;20349;-64
2022/02/05 09:25:44;;;;;;;11.40;4.30;;;;;;;;;;5009242;28;20078;-65
2022/02/05 09:28:10;;;;;;;8.27;2.80;;;;;;;;;;4996924;28;20341;-65
2022/02/05 09:31:00;;;;;;;6.78;3.33;;;;;;;;;;4995548;28;20086;-66
2022/02/05 09:33:26;;;;;;;14.05;4.00;;;;;;;;;;4998727;28;20074;-65
2022/02/05 09:35:51;;;;;;;7.93;3.37;;;;;;;;;;4996666;28;20103;-66
2022/02/05 09:38:16;;;;;;;10.70;3.90;;;;;;;;;;4996792;28;20161;-63
2022/02/05 09:40:41;;;;;;;5.73;3.23;;;;;;;;;;4996541;28;20204;-65
2022/02/05 09:43:06;;;;;;;9.43;3.67;;;;;;;;;;4994905;28;20100;-66
2022/02/05 09:45:34;;;;;;;8.33;3.67;;;;;;;;;;4986079;28;20075;-64
2022/02/05 09:47:59;;;;;;;12.15;3.03;;;;;;;;;;5000213;28;20094;-66
2022/02/05 09:50:24;;;;;;;10.07;3.60;;;;;;;;;;4999892;28;20271;-66
2022/02/05 09:52:52;;;;;;;10.27;3.93;;;;;;;;;;4999183;28;20140;-65
2022/02/05 09:55:17;;;;;;;6.22;3.40;;;;;;;;;;4996969;28;20103;-65
2022/02/05 09:57:42;;;;;;;8.70;3.10;;;;;;;;;;4999517;28;20173;-64
2022/02/05 10:00:13;;;;;;;8.70;4.03;;;;;;;;;;4994480;28;20353;-66
2022/02/05 10:02:40;;;;;;;6.15;3.40;;;;;;;;;;4994304;28;20082;-65
2022/02/05 10:05:10;;;;;;;10.90;3.85;;;;;;;;;;4992018;28;20563;-66
2022/02/05 10:07:50;;;;;;;6.68;2.65;;;;;;;;;;5000434;28;20102;-65
2022/02/05 10:10:15;;;;;;;9.30;4.05;;;;;;;;;;4988025;28;20531;-65
2022/02/05 10:12:40;;;;;;;10.83;3.20;;;;;;;;;;5002868;28;20101;-66
2022/02/05 10:15:06;;;;;;;10.73;3.70;;;;;;;;;;4996293;28;20110;-67
2022/02/05 10:17:41;;;;;;;6.20;2.95;;;;;;;;;;4989588;28;20083;-64
2022/02/05 10:20:06;;;;;;;8.27;3.00;;;;;;;;;;4999027;28;20506;-64
2022/02/05 10:22:36;;;;;;;6.07;3.05;;;;;;;;;;4995462;28;20152;-67
2022/02/05 10:25:06;;;;;;;6.20;2.92;;;;;;;;;;4996780;28;20078;-66
2022/02/05 10:27:39;;;;;;;7.85;3.13;;;;;;;;;;4977888;28;20090;-64
2022/02/05 10:30:09;;;;;;;10.35;3.83;;;;;;;;;;4994787;28;20066;-66
2022/02/05 10:32:41;;;;;;;4.72;2.45;;;;;;;;;;4991104;28;20107;-64
2022/02/05 10:35:20;;;;;;;7.20;2.60;;;;;;;;;;4990878;28;20109;-66
2022/02/05 10:37:51;;;;;;;6.80;2.38;;;;;;;;;;4994118;28;20383;-64
2022/02/05 10:40:22;;;;;;;6.82;2.88;;;;;;;;;;4990635;28;20102;-63
2022/02/05 10:43:02;;;;;;;6.22;3.42;;;;;;;;;;4994696;28;20110;-64
2022/02/05 10:45:40;;;;;;;9.25;3.28;;;;;;;;;;4995462;28;20085;-65
2022/02/05 10:48:06;;;;;;;14.45;8.73;;;;;;;;;;4994969;28;20117;-66
2022/02/05 10:50:34;;;;;;;5.88;2.78;;;;;;;;;;4998579;28;20082;-66
2022/02/05 10:53:03;;;;;;;7.40;2.80;;;;;;;;;;4995196;28;20070;-66
2022/02/05 10:55:51;;;;;;;9.98;3.38;;;;;;;;;;4996721;28;20210;-65
2022/02/05 10:58:42;;;;;;;10.45;3.05;;;;;;;;;;4995223;28;20075;-66
2022/02/05 11:06:42;;;;;;;6.03;2.80;;;;;;;;;;4993283;28;20397;-66
2022/02/05 11:09:07;;;;;;;7.13;3.10;;;;;;;;;;4994485;28;20383;-64
2022/02/05 11:11:38;;;;;;;6.53;2.83;;;;;;;;;;4985970;28;20716;-65
2022/02/05 11:14:11;;;;;;;10.50;3.67;;;;;;;;;;4995907;28;20260;-65
2022/02/05 11:16:56;;;;;;;6.75;2.30;;;;;;;;;;4998226;28;20094;-66
2022/02/05 11:19:21;;;;;;;9.15;3.60;;;;;;;;;;5003729;28;20106;-64
2022/02/05 11:21:46;;;;;;;6.40;2.87;;;;;;;;;;4999509;28;20691;-65
2022/02/05 11:24:12;;;;;;;8.45;3.10;;;;;;;;;;4999619;28;20540;-64
2022/02/05 11:26:37;;;;;;;11.85;6.78;;;;;;;;;;5000002;28;20063;-66
2022/02/05 11:29:03;;;;;;;5.07;2.60;;;;;;;;;;4996734;28;20449;-66
2022/02/05 11:31:35;;;;;;;6.95;2.92;;;;;;;;;;4993718;28;20094;-65
2022/02/05 11:34:25;;;;;;;5.85;2.90;;;;;;;;;;5000885;28;20197;-63
2022/02/05 11:36:57;;;;;;;6.97;2.78;;;;;;;;;;4997824;28;20191;-64
2022/02/05 11:39:23;;;;;;;6.28;2.70;;;;;;;;;;4998097;28;20111;-63
2022/02/05 11:41:49;;;;;;;4.77;2.47;;;;;;;;;;4995058;28;20865;-64
2022/02/05 11:44:25;;;;;;;8.38;3.15;;;;;;;;;;4992316;28;20349;-64
2022/02/05 11:47:05;;;;;;;7.03;2.70;;;;;;;;;;4997004;28;20113;-64
2022/02/05 11:49:49;;;;;;;7.25;2.60;;;;;;;;;;4999364;28;20148;-65
2022/02/05 11:52:33;;;;;;;4.65;2.40;;;;;;;;;;4999899;28;20188;-64
2022/02/05 11:54:58;;;;;;;6.78;2.67;;;;;;;;;;4992100;28;20102;-65
2022/02/05 11:57:42;;;;;;;5.45;2.45;;;;;;;;;;4998003;28;20400;-65
2022/02/05 12:00:08;;;;;;;4.18;2.20;;;;;;;;;;4996821;28;20113;-65
2022/02/05 12:02:41;;;;;;;4.22;2.08;;;;;;;;;;5005693;28;20093;-65
2022/02/05 12:05:17;;;;;;;5.13;2.05;;;;;;;;;;4990922;28;20075;-64
2022/02/05 12:08:01;;;;;;;5.50;2.08;;;;;;;;;;4993508;28;20102;-66
2022/02/05 12:10:36;;;;;;;4.93;2.30;;;;;;;;;;4989496;28;20201;-65
2022/02/05 12:13:13;;;;;;;3.92;1.75;;;;;;;;;;4993340;28;20074;-66
2022/02/05 12:15:38;;;;;;;6.30;2.90;;;;;;;;;;4993931;28;20567;-67
2022/02/05 12:26:13;;;;;;;8.38;2.78;;;;;;;;;;5005968;28;20510;-65
2022/02/05 12:28:39;;;;;;;5.83;3.00;;;;;;;;;;4992968;28;20102;-66
2022/02/05 12:31:05;;;;;;;7.45;3.70;;;;;;;;;;5009407;28;20110;-65
2022/02/05 12:33:46;;;;;;;9.32;3.00;;;;;;;;;;5003709;28;20070;-66
2022/02/05 12:36:11;;;;;;;7.00;2.80;;;;;;;;;;4998431;28;21070;-65
2022/02/05 12:38:43;;;;;;;8.77;2.90;;;;;;;;;;5005045;28;20078;-65
2022/02/05 12:41:09;;;;;;;4.55;2.10;;;;;;;;;;4996506;28;20082;-66
2022/02/05 12:43:54;;;;;;;4.00;2.17;;;;;;;;;;4999016;28;20627;-66
2022/02/05 12:46:21;;;;;;;4.63;2.42;;;;;;;;;;5001478;28;20082;-65
2022/02/05 12:48:50;;;;;;;6.38;2.30;;;;;;;;;;4985298;28;20094;-67
2022/02/05 12:51:16;;;;;;;6.95;2.13;;;;;;;;;;5010422;28;20090;-66
2022/02/05 12:53:43;;;;;;;7.20;2.40;;;;;;;;;;5004328;28;20498;-67
2022/02/05 12:56:12;;;;;;;4.38;1.70;;;;;;;;;;5017889;28;20121;-66
2022/02/05 12:58:54;;;;;;;4.47;1.92;;;;;;;;;;5014501;28;20355;-67
2022/02/05 13:01:19;;;;;;;3.10;1.83;;;;;;;;;;5010612;28;20097;-66
2022/02/05 13:03:44;;;;;;;3.50;1.80;;;;;;;;;;5004849;28;20140;-66
2022/02/05 13:06:19;;;;;;;1.93;1.47;;;;;;;;;;5015356;28;20390;-66
2022/02/05 13:08:45;;;;;;;1.95;1.15;;;;;;;;;;5005086;28;20105;-65
2022/02/05 13:11:10;;;;;;;3.10;1.70;;;;;;;;;;5003954;28;20801;-67
2022/02/05 13:13:37;;;;;;;2.60;1.30;;;;;;;;;;5016402;28;20159;-67
2022/02/05 13:16:02;;;;;;;2.00;1.40;;;;;;;;;;4993037;28;20241;-66
2022/02/05 13:18:42;;;;;;;4.32;1.60;;;;;;;;;;4983985;28;20087;-65
2022/02/05 13:26:55;;;;;;;5.28;1.80;;;;;;;;;;4999604;28;20295;-65
2022/02/05 13:29:35;;;;;;;4.13;1.85;;;;;;;;;;5000257;28;20070;-66
2022/02/05 13:34:44;;;;;;;2.33;1.70;;;;;;;;;;4995967;28;20256;-65
2022/02/05 13:37:18;;;;;;;6.10;1.60;;;;;;;;;;5006276;28;20151;-64
2022/02/05 13:39:59;;;;;;;4.18;1.55;;;;;;;;;;5011903;28;20328;-64
2022/02/05 13:42:26;;;;;;;4.25;1.60;;;;;;;;;;4991119;28;20297;-66
2022/02/05 13:45:09;;;;;;;5.10;2.03;;;;;;;;;;5017462;28;20106;-66
2022/02/05 13:47:35;;;;;;;3.30;1.50;;;;;;;;;;5010136;28;20241;-66
2022/02/05 13:50:05;;;;;;;2.72;1.27;;;;;;;;;;4995906;28;20706;-66
2022/02/05 13:52:34;;;;;;;5.78;1.50;;;;;;;;;;5002028;28;20128;-65
2022/02/05 13:55:07;;;;;;;6.03;1.80;;;;;;;;;;5009961;28;20528;-64
2022/02/05 13:57:32;;;;;;;3.20;1.60;;;;;;;;;;4990616;28;20071;-64
2022/02/05 13:59:57;;;;;;;6.40;1.43;;;;;;;;;;5010522;28;20839;-63
2022/02/05 14:02:23;;;;;;;2.27;1.33;;;;;;;;;;5017149;28;20589;-64
2022/02/05 14:05:07;;;;;;;6.40;1.80;;;;;;;;;;5008629;28;20349;-63
2022/02/05 14:07:45;;;;;;;2.92;1.58;;;;;;;;;;5011555;28;20102;-64
2022/02/05 14:10:17;;;;;;;3.42;1.45;;;;;;;;;;5007520;28;20066;-64
2022/02/05 14:12:49;;;;;;;2.05;1.45;;;;;;;;;;5011473;28;20140;-64
2022/02/05 14:15:14;;;;;;;2.97;1.42;;;;;;;;;;4996827;28;20105;-64
2022/02/05 14:17:40;;;;;;;3.08;1.45;;;;;;;;;;5007658;28;20074;-64
2022/02/05 14:20:06;;;;;;;2.25;1.05;;;;;;;;;;5007351;28;20395;-64
2022/02/05 14:22:35;;;;;;;3.63;1.55;;;;;;;;;;5016384;28;20555;-63
2022/02/05 14:25:13;;;;;;;4.18;1.42;;;;;;;;;;5008317;28;20258;-65
2022/02/05 14:27:57;;;;;;;3.88;1.58;;;;;;;;;;4980081;28;20114;-65
2022/02/05 14:30:26;;;;;;;2.90;1.50;;;;;;;;;;4972839;28;20124;-65
2022/02/05 14:32:53;;;;;;;2.92;1.42;;;;;;;;;;4975859;28;20107;-66
2022/02/05 14:40:47;;;;;;;2.78;1.55;;;;;;;;;;4990119;28;20172;-65
2022/02/05 14:43:14;;;;;;;4.28;1.45;;;;;;;;;;4990510;28;20589;-64
2022/02/05 14:45:40;;;;;;;4.00;1.50;;;;;;;;;;4997555;28;20642;-65
2022/02/05 14:48:05;;;;;;;2.93;1.67;;;;;;;;;;4984332;28;20091;-64
2022/02/05 14:50:30;;;;;;;2.40;1.23;;;;;;;;;;4989333;28;20217;-64
2022/02/05 14:52:55;;;;;;;2.93;1.43;;;;;;;;;;4990645;28;20544;-63
2022/02/05 14:55:21;;;;;;;3.27;1.27;;;;;;;;;;4990211;28;20391;-63
2022/02/05 14:57:47;;;;;;;2.37;1.40;;;;;;;;;;4990749;28;20101;-62
2022/02/05 15:00:13;;;;;;;2.72;1.65;;;;;;;;;;4983405;28;20352;-63
2022/02/05 15:02:38;;;;;;;3.63;1.63;;;;;;;;;;4988436;28;20375;-65
2022/02/05 15:05:10;;;;;;;2.50;1.65;;;;;;;;;;4996783;28;20077;-64
2022/02/05 15:07:35;;;;;;;6.35;1.73;;;;;;;;;;4996152;28;20484;-64
2022/02/05 15:10:00;;;;;;;5.32;2.10;;;;;;;;;;4996564;28;20105;-65
2022/02/05 15:12:26;;;;;;;4.53;2.27;;;;;;;;;;4989239;28;20126;-65
2022/02/05 15:14:51;;;;;;;3.73;1.87;;;;;;;;;;4983712;28;20156;-64
2022/02/05 15:17:16;;;;;;;6.03;2.38;;;;;;;;;;4983490;28;20547;-65
2022/02/05 15:19:42;;;;;;;4.25;1.92;;;;;;;;;;4995872;28;20574;-65
2022/02/05 15:22:07;;;;;;;5.10;2.10;;;;;;;;;;4995901;28;20438;-64
2022/02/05 15:24:32;;;;;;;3.50;1.77;;;;;;;;;;4996790;28;20466;-65
2022/02/05 15:26:58;;;;;;;5.27;2.20;;;;;;;;;;4996401;28;20597;-65
2022/02/05 15:29:23;;;;;;;6.13;2.38;;;;;;;;;;4996672;28;20379;-66
2022/02/05 15:31:53;;;;;;;5.63;2.10;;;;;;;;;;4995469;28;20118;-65
2022/02/05 15:34:18;;;;;;;5.75;2.40;;;;;;;;;;4995000;28;20087;-64
2022/02/05 15:36:49;;;;;;;4.47;2.23;;;;;;;;;;4985770;28;20424;-65
2022/02/05 15:44:39;;;;;;;2.97;1.90;;;;;;;;;;4984976;28;20137;-63
2022/02/05 15:47:04;;;;;;;5.28;2.15;;;;;;;;;;4986620;28;20181;-63
2022/02/05 15:49:29;;;;;;;4.85;2.20;;;;;;;;;;4996979;28;20141;-63
2022/02/05 15:51:55;;;;;;;5.53;2.00;;;;;;;;;;4988399;28;20193;-63
2022/02/05 15:54:23;;;;;;;4.40;1.87;;;;;;;;;;4997314;28;20066;-63
2022/02/05 15:56:59;;;;;;;4.40;1.95;;;;;;;;;;4989683;28;20359;-63
2022/02/05 15:59:40;;;;;;;4.68;2.35;;;;;;;;;;4986461;28;20106;-63
2022/02/05 16:02:05;;;;;;;3.50;1.90;;;;;;;;;;4986432;28;20173;-64
2022/02/05 16:04:30;;;;;;;7.57;1.97;;;;;;;;;;4998661;28;20221;-65
2022/02/05 16:06:55;;;;;;;8.10;2.20;;;;;;;;;;4986684;28;20338;-65
2022/02/05 16:09:21;;;;;;;4.47;2.03;;;;;;;;;;4999902;28;20105;-65
2022/02/05 16:11:46;;;;;;;5.57;2.27;;;;;;;;;;4987879;28;20098;-65
2022/02/05 16:14:11;;;;;;;3.20;2.20;;;;;;;;;;4986737;28;20273;-64
2022/02/05 16:16:36;;;;;;;5.97;2.27;;;;;;;;;;4998776;28;20193;-64
2022/02/05 16:19:02;;;;;;;3.00;1.63;;;;;;;;;;4992568;28;20091;-63
2022/02/05 16:21:27;;;;;;;7.78;2.25;;;;;;;;;;4991853;28;20468;-64
2022/02/05 16:23:52;;;;;;;4.67;2.30;;;;;;;;;;4986747;28;20491;-64
2022/02/05 16:26:18;;;;;;;5.00;2.30;;;;;;;;;;4998747;28;20086;-62
2022/02/05 16:28:43;;;;;;;6.80;2.53;;;;;;;;;;4984885;28;20341;-63
2022/02/05 16:31:08;;;;;;;6.93;2.23;;;;;;;;;;4998136;28;20102;-64
2022/02/05 16:33:35;;;;;;;7.40;2.60;;;;;;;;;;4987466;28;20678;-64
2022/02/05 16:36:06;;;;;;;10.43;2.85;;;;;;;;;;4992430;28;20100;-66
2022/02/05 16:38:32;;;;;;;5.57;2.70;;;;;;;;;;4992839;28;20078;-64
2022/02/05 16:40:59;;;;;;;5.82;2.67;;;;;;;;;;4991838;28;20103;-65
2022/02/05 16:43:24;;;;;;;6.28;3.00;;;;;;;;;;4991992;28;20098;-64
2022/02/05 16:45:50;;;;;;;7.22;3.10;;;;;;;;;;4988450;28;20133;-66
2022/02/05 16:48:15;;;;;;;4.57;2.78;;;;;;;;;;4985740;28;20560;-66
2022/02/05 16:50:41;;;;;;;7.13;2.75;;;;;;;;;;4989999;28;20110;-65
2022/02/05 16:53:06;;;;;;;6.78;2.60;;;;;;;;;;4993765;28;20074;-65
2022/02/05 16:55:32;;;;;;;5.05;2.90;;;;;;;;;;4990310;28;20106;-64
2022/02/05 16:57:57;;;;;;;8.07;3.33;;;;;;;;;;4992296;28;20173;-64
2022/02/05 17:00:22;;;;;;;4.25;2.70;;;;;;;;;;4987003;28;20212;-62
2022/02/05 17:02:49;;;;;;;6.03;2.57;;;;;;;;;;4997439;28;20279;-63
2022/02/05 17:05:14;;;;;;;4.55;2.92;;;;;;;;;;4988919;28;20377;-64
2022/02/05 17:07:40;;;;;;;6.80;2.43;;;;;;;;;;4993577;28;20109;-64
2022/02/05 17:10:06;;;;;;;5.20;2.50;;;;;;;;;;4997943;28;20424;-64
2022/02/05 17:12:31;;;;;;;9.18;2.72;;;;;;;;;;4993257;28;20808;-62
2022/02/05 17:14:57;;;;;;;5.77;2.80;;;;;;;;;;4987900;28;20398;-64
2022/02/05 17:17:23;;;;;;;3.70;2.20;;;;;;;;;;4986829;28;20698;-64
2022/02/05 17:19:53;;;;;;;7.18;2.72;;;;;;;;;;4997331;28;20118;-63
2022/02/05 17:22:24;;;;;;;5.63;2.58;;;;;;;;;;4984316;28;20547;-64
2022/02/05 17:24:50;;;;;;;8.75;3.50;;;;;;;;;;4985711;28;20662;-64
2022/02/05 17:27:15;;;;;;;6.28;3.42;;;;;;;;;;4983403;28;20127;-63
2022/02/05 17:29:40;;;;;;;7.40;3.00;;;;;;;;;;4986733;28;20177;-64
2022/02/05 17:32:06;;;;;;;7.90;3.30;;;;;;;;;;4989789;28;20103;-65